createdAt,value
2018-12-23T00:00:32.880Z,93.00
2018-12-23T00:03:01.013Z,92.90
2018-12-23T00:05:29.215Z,93.00
2018-12-23T00:07:57.383Z,93.00
2018-12-23T00:10:25.565Z,93.00
2018-12-23T00:12:53.960Z,93.00
2018-12-23T00:15:22.128Z,92.80
2018-12-23T00:17:50.247Z,92.80
2018-12-23T00:20:24.919Z,92.70
2018-12-23T00:22:53.323Z,92.40
2018-12-23T00:25:21.464Z,92.10
2018-12-23T00:27:49.594Z,92.00
2018-12-23T00:30:17.804Z,91.80
2018-12-23T00:32:45.919Z,91.70
2018-12-23T00:35:20.252Z,91.80
2018-12-23T00:37:44.225Z,91.90
2018-12-23T00:40:12.385Z,92.10
2018-12-23T00:42:40.532Z,91.70
2018-12-23T00:45:08.813Z,91.30
2018-12-23T00:47:37.039Z,91.00
2018-12-23T00:50:06.532Z,91.10
2018-12-23T00:52:34.677Z,90.90
2018-12-23T00:55:02.896Z,90.80
2018-12-23T00:57:31.048Z,90.70
2018-12-23T00:59:59.195Z,90.70
2018-12-23T01:02:27.417Z,90.90
2018-12-23T01:04:55.567Z,91.40
2018-12-23T01:07:23.777Z,91.60
2018-12-23T01:09:51.977Z,91.70
2018-12-23T01:12:20.111Z,91.80
2018-12-23T01:14:48.240Z,92.00
2018-12-23T01:17:16.421Z,92.10
2018-12-23T01:19:44.543Z,92.10
2018-12-23T01:22:12.760Z,92.20
2018-12-23T01:24:40.916Z,92.10
2018-12-23T01:27:09.116Z,92.00
2018-12-23T01:29:37.329Z,92.20
2018-12-23T01:32:05.506Z,92.10
2018-12-23T01:34:37.096Z,92.10
2018-12-23T01:37:03.837Z,92.10
2018-12-23T01:39:32.712Z,92.00
2018-12-23T01:42:00.912Z,91.90
2018-12-23T01:44:29.128Z,92.00
2018-12-23T01:46:57.280Z,91.80
2018-12-23T01:49:25.513Z,91.90
2018-12-23T01:51:53.644Z,91.60
2018-12-23T01:54:21.780Z,91.40
2018-12-23T01:56:50.080Z,91.50
2018-12-23T01:59:18.311Z,91.60
2018-12-23T02:01:46.532Z,92.00
2018-12-23T02:04:14.682Z,92.10
2018-12-23T02:06:42.815Z,92.50
2018-12-23T02:09:11.240Z,92.40
2018-12-23T02:11:39.388Z,92.70
2018-12-23T02:14:07.530Z,92.80
2018-12-23T02:16:35.965Z,93.20
2018-12-23T02:19:04.176Z,93.40
2018-12-23T02:21:32.308Z,93.60
2018-12-23T02:24:00.608Z,93.80
2018-12-23T02:26:28.812Z,94.40
2018-12-23T02:28:57.054Z,94.20
2018-12-23T02:31:25.190Z,94.50
2018-12-23T02:33:53.416Z,95.00
2018-12-23T02:36:21.604Z,95.20
2018-12-23T02:38:49.744Z,95.10
2018-12-23T02:41:18.165Z,95.30
2018-12-23T02:43:46.297Z,95.30
2018-12-23T02:46:14.535Z,95.60
2018-12-23T02:48:42.766Z,95.70
2018-12-23T02:51:11.318Z,95.70
2018-12-23T02:53:39.455Z,95.80
2018-12-23T02:56:07.606Z,95.80
2018-12-23T02:58:35.771Z,95.90
2018-12-23T03:01:04.013Z,96.10
2018-12-23T03:03:32.180Z,96.20
2018-12-23T03:06:05.677Z,96.20
2018-12-23T03:08:30.505Z,96.30
2018-12-23T03:10:58.774Z,96.40
2018-12-23T03:13:27.135Z,96.30
2018-12-23T03:15:55.236Z,96.40
2018-12-23T03:18:23.459Z,96.40
2018-12-23T03:20:51.606Z,96.30
2018-12-23T03:23:19.745Z,96.50
2018-12-23T03:25:48.229Z,96.70
2018-12-23T03:28:16.486Z,96.80
2018-12-23T03:30:44.682Z,96.70
2018-12-23T03:33:13.181Z,96.80
2018-12-23T03:35:41.451Z,96.90
2018-12-23T03:38:09.703Z,97.10
2018-12-23T03:40:37.858Z,97.30
2018-12-23T03:43:06.017Z,97.30
2018-12-23T03:45:34.163Z,97.40
2018-12-23T03:48:02.301Z,97.40
2018-12-23T03:50:30.430Z,97.60
2018-12-23T03:52:58.565Z,97.60
2018-12-23T03:55:26.699Z,97.70
2018-12-23T03:57:54.817Z,97.70
2018-12-23T04:00:22.965Z,97.60
2018-12-23T04:02:51.093Z,97.50
2018-12-23T04:05:19.228Z,97.80
2018-12-23T04:07:47.370Z,97.50
2018-12-23T04:10:15.673Z,97.50
2018-12-23T04:12:43.802Z,97.60
2018-12-23T04:15:12.016Z,97.70
2018-12-23T04:17:40.143Z,97.70
2018-12-23T04:20:08.337Z,97.80
2018-12-23T04:22:36.460Z,97.80
2018-12-23T04:25:05.199Z,97.90
2018-12-23T04:27:33.312Z,98.00
2018-12-23T04:30:01.542Z,98.10
2018-12-23T04:32:29.689Z,98.20
2018-12-23T04:34:57.828Z,98.30
2018-12-23T04:37:27.052Z,98.40
2018-12-23T04:39:55.192Z,98.50
2018-12-23T04:42:23.330Z,98.50
2018-12-23T04:44:51.461Z,98.10
2018-12-23T04:47:19.612Z,97.90
2018-12-23T04:49:48.026Z,97.60
2018-12-23T04:52:16.163Z,97.60
2018-12-23T04:54:44.284Z,97.70
2018-12-23T04:57:12.409Z,97.90
2018-12-23T04:59:40.533Z,98.20
2018-12-23T05:02:08.686Z,98.50
2018-12-23T05:04:36.922Z,98.90
2018-12-23T05:07:05.104Z,98.90
2018-12-23T05:09:33.281Z,98.70
2018-12-23T05:12:01.500Z,98.90
2018-12-23T05:14:29.820Z,98.70
2018-12-23T05:16:57.968Z,98.70
2018-12-23T05:19:26.096Z,98.60
2018-12-23T05:21:55.204Z,98.50
2018-12-23T05:24:23.432Z,98.40
2018-12-23T05:26:51.602Z,98.20
2018-12-23T05:29:19.716Z,98.10
2018-12-23T05:31:47.877Z,98.10
2018-12-23T05:34:16.106Z,98.00
2018-12-23T05:36:52.187Z,97.80
2018-12-23T05:39:14.361Z,97.70
2018-12-23T05:41:42.485Z,97.60
2018-12-23T05:44:10.641Z,97.40
2018-12-23T05:46:38.781Z,97.20
2018-12-23T05:49:06.905Z,97.10
2018-12-23T05:51:35.260Z,96.90
2018-12-23T05:54:03.473Z,96.60
2018-12-23T05:56:31.700Z,96.60
2018-12-23T05:58:59.924Z,96.90
2018-12-23T06:01:28.044Z,96.80
2018-12-23T06:03:56.173Z,96.80
2018-12-23T06:06:24.316Z,96.90
2018-12-23T06:08:52.647Z,97.10
2018-12-23T06:11:20.781Z,97.30
2018-12-23T06:13:48.921Z,97.50
2018-12-23T06:16:17.204Z,97.60
2018-12-23T06:18:45.322Z,97.80
2018-12-23T06:21:13.755Z,98.20
2018-12-23T06:23:41.899Z,98.20
2018-12-23T06:26:10.044Z,98.10
2018-12-23T06:28:38.188Z,98.00
2018-12-23T06:31:06.619Z,98.00
2018-12-23T06:33:34.832Z,98.00
2018-12-23T06:36:03.040Z,98.20
2018-12-23T06:38:31.568Z,98.20
2018-12-23T06:40:59.770Z,98.20
2018-12-23T06:43:27.979Z,98.30
2018-12-23T06:45:56.147Z,98.20
2018-12-23T06:48:24.334Z,98.20
2018-12-23T06:50:52.624Z,98.20
2018-12-23T06:53:20.992Z,98.20
2018-12-23T06:55:49.123Z,98.20
2018-12-23T06:58:17.347Z,98.20
2018-12-23T07:00:45.503Z,98.00
2018-12-23T07:03:13.617Z,98.00
2018-12-23T07:05:41.741Z,98.10
2018-12-23T07:08:10.109Z,98.40
2018-12-23T07:10:38.253Z,98.90
2018-12-23T07:13:06.460Z,99.00
2018-12-23T07:15:34.655Z,99.10
2018-12-23T07:18:02.781Z,99.20
2018-12-23T07:20:31.007Z,99.30
2018-12-23T07:25:51.842Z,99.40
2018-12-23T07:28:19.995Z,99.40
2018-12-23T07:30:48.166Z,99.50
2018-12-23T07:33:16.828Z,99.60
2018-12-23T07:35:44.963Z,99.70
2018-12-23T07:38:13.117Z,99.70
2018-12-23T07:40:41.249Z,99.70
2018-12-23T07:43:09.608Z,99.80
2018-12-23T07:45:37.738Z,99.80
2018-12-23T07:48:05.884Z,99.70
2018-12-23T07:50:35.564Z,99.70
2018-12-23T07:53:03.771Z,99.70
2018-12-23T07:55:32.012Z,99.60
2018-12-23T07:58:00.155Z,99.60
2018-12-23T08:00:28.349Z,99.60
2018-12-23T08:02:56.602Z,99.70
2018-12-23T08:05:24.917Z,99.70
2018-12-23T08:07:53.140Z,99.70
2018-12-23T08:10:21.271Z,99.90
2018-12-23T08:12:49.500Z,99.80
2018-12-23T08:15:17.908Z,99.90
2018-12-23T08:17:46.129Z,99.90
2018-12-23T08:20:14.389Z,99.90
2018-12-23T08:22:42.546Z,99.90
2018-12-23T08:25:10.744Z,99.90
2018-12-23T08:27:38.904Z,99.90
2018-12-23T08:30:07.247Z,99.90
2018-12-23T08:33:19.274Z,99.90
2018-12-23T08:36:00.272Z,99.90
2018-12-23T08:38:41.519Z,99.90
2018-12-23T08:41:22.524Z,99.80
2018-12-23T08:44:03.653Z,99.80
2018-12-23T08:46:44.184Z,99.60
2018-12-23T08:49:25.433Z,99.20
2018-12-23T08:52:06.447Z,99.00
2018-12-23T08:54:47.506Z,98.70
2018-12-23T08:57:28.609Z,98.10
2018-12-23T09:00:09.614Z,97.80
2018-12-23T09:02:51.030Z,97.60
2018-12-23T09:05:32.130Z,97.20
2018-12-23T09:08:13.482Z,96.70
2018-12-23T09:10:55.123Z,96.50
2018-12-23T09:13:24.539Z,96.30
2018-12-23T09:16:12.971Z,96.20
2018-12-23T09:19:01.448Z,95.90
2018-12-23T09:21:42.114Z,95.60
2018-12-23T09:24:23.809Z,95.60
2018-12-23T09:27:04.751Z,95.50
2018-12-23T09:32:27.832Z,94.90
2018-12-23T09:35:16.530Z,94.90
2018-12-23T09:38:01.469Z,95.10
2018-12-23T09:40:40.320Z,95.30
2018-12-23T09:43:21.619Z,95.30
2018-12-23T09:46:02.603Z,95.30
2018-12-23T09:48:45.356Z,95.50
2018-12-23T09:51:26.497Z,95.60
2018-12-23T09:54:07.579Z,95.40
2018-12-23T09:56:48.566Z,95.40
2018-12-23T09:59:29.857Z,95.60
2018-12-23T10:02:11.029Z,95.70
2018-12-23T10:04:51.951Z,95.70
2018-12-23T10:07:33.183Z,95.80
2018-12-23T10:10:13.888Z,95.60
2018-12-23T10:12:54.888Z,95.50
2018-12-23T10:15:36.231Z,95.30
2018-12-23T10:18:17.329Z,95.60
2018-12-23T10:20:58.829Z,95.00
2018-12-23T10:26:35.612Z,92.20
2018-12-23T10:29:16.380Z,92.00
2018-12-23T10:31:57.663Z,92.20
2018-12-23T10:34:39.083Z,90.80
2018-12-23T10:37:19.777Z,91.10
2018-12-23T10:40:00.562Z,90.60
2018-12-23T10:42:41.537Z,90.10
2018-12-23T10:45:22.457Z,90.30
2018-12-23T10:48:03.646Z,88.10
2018-12-23T10:50:44.884Z,89.00
2018-12-23T10:53:25.748Z,89.20
2018-12-23T10:56:06.946Z,88.80
2018-12-23T10:58:47.970Z,88.30
2018-12-23T11:01:28.745Z,88.60
2018-12-23T11:04:09.837Z,88.40
2018-12-23T11:06:50.739Z,88.00
2018-12-23T11:09:32.266Z,88.50
2018-12-23T11:12:12.944Z,88.30
2018-12-23T11:14:54.194Z,87.70
2018-12-23T11:17:34.854Z,87.20
2018-12-23T11:20:16.418Z,87.40
2018-12-23T11:22:46.539Z,88.00
2018-12-23T11:25:35.117Z,87.10
2018-12-23T11:28:23.509Z,87.50
2018-12-23T11:31:04.214Z,88.00
2018-12-23T11:33:45.578Z,87.70
2018-12-23T11:36:27.926Z,87.50
2018-12-23T11:39:09.087Z,87.80
2018-12-23T11:41:50.076Z,87.70
2018-12-23T11:44:30.911Z,88.30
2018-12-23T11:47:11.917Z,88.60
2018-12-23T11:52:51.276Z,89.60
2018-12-23T11:55:32.610Z,89.30
2018-12-23T11:58:13.699Z,88.00
2018-12-23T12:00:54.652Z,88.20
2018-12-23T12:03:35.599Z,86.80
2018-12-23T12:06:16.775Z,84.00
2018-12-23T12:08:58.190Z,83.90
2018-12-23T12:11:41.143Z,82.80
2018-12-23T12:14:22.247Z,81.30
2018-12-23T12:17:02.928Z,80.00
2018-12-23T12:19:43.945Z,80.60
2018-12-23T12:22:25.276Z,80.10
2018-12-23T12:25:06.122Z,80.10
2018-12-23T12:27:46.974Z,80.00
2018-12-23T12:30:28.109Z,80.40
2018-12-23T12:33:09.159Z,80.70
2018-12-23T12:35:50.332Z,82.50
2018-12-23T12:38:31.551Z,83.60
2018-12-23T12:41:12.819Z,82.50
2018-12-23T12:43:53.566Z,83.20
2018-12-23T12:46:34.918Z,83.90
2018-12-23T12:49:16.002Z,84.60
2018-12-23T12:51:56.825Z,86.20
2018-12-23T12:54:37.785Z,87.00
2018-12-23T12:57:18.837Z,87.10
2018-12-23T13:00:00.030Z,88.40
2018-12-23T13:02:40.880Z,88.20
2018-12-23T13:05:22.061Z,89.30
2018-12-23T13:08:03.334Z,90.30
2018-12-23T13:10:44.404Z,90.60
2018-12-23T13:13:25.899Z,90.90
2018-12-23T13:16:07.170Z,91.30
2018-12-23T13:18:48.198Z,91.50
2018-12-23T13:21:29.539Z,91.60
2018-12-23T13:24:11.025Z,92.00
2018-12-23T13:26:52.086Z,92.40
2018-12-23T13:29:33.317Z,92.80
2018-12-23T13:32:13.983Z,92.90
2018-12-23T13:34:53.458Z,93.00
2018-12-23T13:37:34.446Z,93.10
2018-12-23T13:40:15.915Z,93.50
2018-12-23T13:43:08.034Z,93.70
2018-12-23T13:46:15.486Z,94.10
2018-12-23T13:48:57.205Z,94.20
2018-12-23T13:51:37.878Z,94.50
2018-12-23T13:54:21.269Z,94.50
2018-12-23T14:00:00.683Z,94.90
2018-12-23T14:02:41.853Z,95.00
2018-12-23T14:05:23.208Z,95.00
2018-12-23T14:08:04.227Z,95.00
2018-12-23T14:10:45.786Z,95.00
2018-12-23T14:13:26.717Z,94.90
2018-12-23T14:16:07.713Z,95.00
2018-12-23T14:18:48.670Z,94.90
2018-12-23T14:21:30.013Z,94.90
2018-12-23T14:24:10.612Z,94.80
2018-12-23T14:26:51.991Z,94.80
2018-12-23T14:29:32.935Z,94.60
2018-12-23T14:32:13.953Z,95.00
2018-12-23T14:34:43.309Z,94.90
2018-12-23T14:37:31.633Z,95.10
2018-12-23T14:40:13.021Z,95.30
2018-12-23T14:42:54.255Z,95.40
2018-12-23T14:45:35.430Z,95.60
2018-12-23T14:48:17.020Z,95.70
2018-12-23T14:50:58.161Z,95.80
2018-12-23T14:53:39.520Z,95.90
2018-12-23T14:56:20.860Z,95.90
2018-12-23T14:59:01.520Z,96.00
2018-12-23T15:01:43.042Z,96.00
2018-12-23T15:04:24.182Z,96.10
2018-12-23T15:07:04.922Z,96.20
2018-12-23T15:09:45.995Z,96.40
2018-12-23T15:12:27.555Z,96.40
2018-12-23T15:15:08.406Z,96.50
2018-12-23T15:17:49.801Z,96.50
2018-12-23T15:20:31.042Z,96.50
2018-12-23T15:23:12.231Z,96.60
2018-12-23T15:25:53.508Z,96.80
2018-12-23T15:28:34.601Z,96.70
2018-12-23T15:31:15.605Z,96.60
2018-12-23T15:33:56.706Z,96.70
2018-12-23T15:36:45.062Z,96.60
2018-12-23T15:39:25.664Z,96.80
2018-12-23T15:42:06.229Z,96.80
2018-12-23T15:44:47.710Z,96.80
2018-12-23T15:47:28.904Z,96.90
2018-12-23T15:50:09.972Z,96.90
2018-12-23T15:52:51.285Z,97.10
2018-12-23T15:55:32.152Z,96.90
2018-12-23T15:58:13.374Z,96.90
2018-12-23T16:00:54.870Z,96.90
2018-12-23T16:03:35.769Z,96.90
2018-12-23T16:06:16.438Z,96.90
2018-12-23T16:08:57.601Z,96.90
2018-12-23T16:11:38.842Z,96.90
2018-12-23T16:14:08.098Z,97.00
2018-12-23T16:16:56.461Z,97.00
2018-12-23T16:22:52.225Z,97.10
2018-12-23T16:28:40.896Z,97.20
2018-12-23T16:31:22.289Z,97.20
2018-12-23T16:34:03.725Z,97.60
2018-12-23T16:36:44.700Z,97.40
2018-12-23T16:39:25.502Z,97.50
2018-12-23T16:42:06.314Z,97.60
2018-12-23T16:44:47.837Z,97.60
2018-12-23T16:47:28.824Z,97.50
2018-12-23T16:50:10.044Z,97.40
2018-12-23T16:52:51.323Z,97.60
2018-12-23T16:55:34.578Z,97.50
2018-12-23T16:58:15.589Z,97.40
2018-12-23T17:00:56.977Z,97.60
2018-12-23T17:03:37.963Z,97.50
2018-12-23T17:06:18.602Z,97.50
2018-12-23T17:08:59.381Z,97.50
2018-12-23T17:11:40.919Z,97.60
2018-12-23T17:14:22.370Z,97.50
2018-12-23T17:17:03.501Z,97.40
2018-12-23T17:19:44.588Z,97.40
2018-12-23T17:22:25.761Z,97.50
2018-12-23T17:25:07.229Z,97.40
2018-12-23T17:27:48.146Z,97.30
2018-12-23T17:30:29.054Z,97.30
2018-12-23T17:33:10.087Z,97.30
2018-12-23T17:35:51.403Z,97.30
2018-12-23T17:38:32.326Z,97.40
2018-12-23T17:41:13.702Z,97.50
2018-12-23T17:43:55.257Z,97.50
2018-12-23T17:46:36.737Z,97.40
2018-12-23T17:49:18.042Z,97.40
2018-12-23T17:51:58.917Z,97.20
2018-12-23T17:54:39.994Z,97.30
2018-12-23T17:57:21.362Z,97.40
2018-12-23T18:00:02.793Z,97.50
2018-12-23T18:02:44.009Z,97.60
2018-12-23T18:05:25.098Z,97.60
2018-12-23T18:08:06.370Z,97.50
2018-12-23T18:10:47.576Z,97.70
2018-12-23T18:13:29.100Z,97.80
2018-12-23T18:16:09.645Z,97.70
2018-12-23T18:18:51.250Z,97.60
2018-12-23T18:21:32.166Z,97.60
2018-12-23T18:24:13.582Z,97.50
2018-12-23T18:26:52.982Z,97.50
2018-12-23T18:29:34.554Z,97.50
2018-12-23T18:32:15.217Z,97.60
2018-12-23T18:34:56.550Z,97.60
2018-12-23T18:37:37.549Z,97.50
2018-12-23T18:40:18.293Z,97.30
2018-12-23T18:42:57.793Z,97.30
2018-12-23T18:45:46.128Z,97.20
2018-12-23T18:48:27.042Z,97.00
2018-12-23T18:51:08.072Z,97.20
2018-12-23T18:53:49.264Z,97.10
2018-12-23T18:56:30.662Z,96.90
2018-12-23T19:02:03.513Z,96.90
2018-12-23T19:04:32.762Z,96.80
2018-12-23T19:07:02.045Z,96.70
2018-12-23T19:09:40.356Z,96.70
2018-12-23T19:12:45.545Z,96.70
2018-12-23T19:15:32.614Z,96.50
2018-12-23T19:18:45.858Z,96.40
2018-12-23T19:22:01.283Z,96.50
2018-12-23T19:25:02.241Z,96.50
2018-12-23T19:28:02.382Z,96.40
2018-12-23T19:31:11.969Z,96.30
2018-12-23T19:34:01.473Z,96.10
2018-12-23T19:37:08.294Z,96.30
2018-12-23T19:40:29.866Z,96.10
2018-12-23T19:43:32.324Z,95.90
2018-12-23T19:46:22.490Z,95.80
2018-12-23T19:49:32.460Z,95.90
2018-12-23T19:52:37.641Z,96.00
2018-12-23T19:55:44.993Z,95.90
2018-12-23T19:59:09.629Z,95.80
2018-12-23T20:02:15.421Z,95.70
2018-12-23T20:05:30.740Z,95.60
2018-12-23T20:08:26.549Z,95.70
2018-12-23T20:11:22.504Z,95.60
2018-12-23T20:14:17.416Z,95.60
2018-12-23T20:17:47.713Z,95.60
2018-12-23T20:20:51.973Z,95.60
2018-12-23T20:24:01.433Z,95.40
2018-12-23T20:27:08.797Z,95.40
2018-12-23T20:30:14.924Z,95.20
2018-12-23T20:33:21.435Z,95.10
2018-12-23T20:36:28.432Z,95.20
2018-12-23T20:39:41.200Z,95.20
2018-12-23T20:42:48.134Z,95.40
2018-12-23T20:45:53.178Z,95.30
2018-12-23T20:49:10.623Z,95.30
2018-12-23T20:52:18.423Z,95.40
2018-12-23T20:55:14.933Z,95.60
2018-12-23T20:58:19.317Z,95.70
2018-12-23T21:01:25.360Z,96.10
2018-12-23T21:04:38.818Z,95.70
2018-12-23T21:07:56.557Z,95.80
2018-12-23T21:11:31.178Z,96.20
2018-12-23T21:14:59.710Z,95.90
2018-12-23T21:17:49.357Z,96.00
2018-12-23T21:21:13.720Z,96.30
2018-12-23T21:24:15.557Z,96.30
2018-12-23T21:27:14.414Z,96.50
2018-12-23T21:30:21.121Z,96.60
2018-12-23T21:33:55.921Z,96.60
2018-12-23T21:36:59.753Z,96.70
2018-12-23T21:40:11.553Z,96.70
2018-12-23T21:43:27.166Z,96.80
2018-12-23T21:46:45.665Z,96.70
2018-12-23T21:49:50.157Z,97.00
2018-12-23T21:52:43.189Z,96.90
2018-12-23T21:55:28.276Z,96.70
2018-12-23T21:58:46.894Z,96.80
2018-12-23T22:02:05.570Z,96.90
2018-12-23T22:05:03.888Z,96.80
2018-12-23T22:08:08.830Z,96.80
2018-12-23T22:11:22.192Z,96.90
2018-12-23T22:13:51.403Z,96.80
2018-12-23T22:16:20.766Z,96.20
2018-12-23T22:18:50.310Z,96.20
2018-12-23T22:21:19.793Z,96.30
2018-12-23T22:23:49.489Z,96.10
2018-12-23T22:26:18.718Z,96.00
2018-12-23T22:28:48.014Z,95.90
2018-12-23T22:31:17.237Z,95.80
2018-12-23T22:33:46.437Z,95.60
2018-12-23T22:36:15.957Z,95.50
2018-12-23T22:38:45.533Z,95.50
2018-12-23T22:41:17.633Z,95.60
2018-12-23T22:43:47.102Z,95.60
2018-12-23T22:46:16.453Z,95.70
2018-12-23T22:48:46.377Z,95.60
2018-12-23T22:51:15.677Z,95.60
2018-12-23T22:53:44.924Z,95.70
2018-12-23T22:56:14.493Z,95.60
2018-12-23T22:58:44.049Z,95.50
2018-12-23T23:01:13.597Z,95.30
2018-12-23T23:03:43.157Z,95.30
2018-12-23T23:06:12.599Z,95.20
2018-12-23T23:08:42.755Z,95.40
2018-12-23T23:11:12.436Z,95.20
2018-12-23T23:13:42.077Z,95.00
2018-12-23T23:16:11.317Z,95.00
2018-12-23T23:18:40.517Z,95.30
2018-12-23T23:21:09.742Z,94.90
2018-12-23T23:23:38.941Z,94.90
2018-12-23T23:26:08.237Z,94.80
2018-12-23T23:28:39.507Z,94.60
2018-12-23T23:31:08.506Z,94.60
2018-12-23T23:33:38.010Z,94.80
2018-12-23T23:36:07.222Z,94.80
2018-12-23T23:38:36.788Z,94.80
2018-12-23T23:41:06.123Z,94.50
2018-12-23T23:43:36.540Z,94.40
2018-12-23T23:46:06.156Z,94.20
2018-12-23T23:48:36.446Z,94.20
2018-12-23T23:51:05.881Z,94.20
2018-12-23T23:53:35.114Z,94.40
2018-12-23T23:56:04.369Z,94.60
2018-12-23T23:58:33.961Z,94.40
